Time;durP1;ratioP1;P1;durP2;ratioP2;P2;SDS_P1;SDS_P2;PMS_P1;PMS_P2;Temp;Humidity;BMP_temperature;BMP_pressure;BME280_temperature;BME280_humidity;BME280_pressure;Samples;Min_cycle;Max_cycle;Signal;HPM_P1;HPM_P2
2022/09/12 00:01:19;;;;;;;29.30;19.10;;;;;;;;;;5050906;28;20021;-75
2022/09/12 00:03:45;;;;;;;33.22;22.05;;;;;;;;;;5051268;28;20029;-74
2022/09/12 00:06:17;;;;;;;34.55;22.88;;;;;;;;;;5049410;28;20080;-75
2022/09/12 00:08:43;;;;;;;32.92;22.30;;;;;;;;;;5048906;28;20025;-73
2022/09/12 00:11:10;;;;;;;36.05;23.83;;;;;;;;;;5049668;28;20024;-74
2022/09/12 00:13:36;;;;;;;33.72;23.60;;;;;;;;;;5050601;28;20057;-75
2022/09/12 00:16:02;;;;;;;38.92;25.27;;;;;;;;;;5049599;28;20519;-77
2022/09/12 00:18:28;;;;;;;46.35;26.90;;;;;;;;;;5049641;28;20025;-76
2022/09/12 00:20:54;;;;;;;50.15;29.13;;;;;;;;;;5050322;28;20028;-76
2022/09/12 00:23:20;;;;;;;47.08;27.83;;;;;;;;;;5050597;28;20021;-75
2022/09/12 00:25:47;;;;;;;42.83;26.27;;;;;;;;;;5049440;28;20437;-75
2022/09/12 00:28:15;;;;;;;43.67;27.42;;;;;;;;;;5048697;28;20045;-75
2022/09/12 00:30:42;;;;;;;47.17;28.67;;;;;;;;;;5050589;28;20032;-76
2022/09/12 00:33:09;;;;;;;48.65;29.13;;;;;;;;;;5055488;28;20029;-75
2022/09/12 00:35:40;;;;;;;41.58;27.33;;;;;;;;;;5056970;28;20017;-76
2022/09/12 00:38:06;;;;;;;46.10;28.02;;;;;;;;;;5056554;28;20026;-74
2022/09/12 00:40:32;;;;;;;49.05;28.58;;;;;;;;;;5061380;28;20540;-75
2022/09/12 00:42:58;;;;;;;39.28;26.48;;;;;;;;;;5071041;28;20025;-75
2022/09/12 00:45:26;;;;;;;46.47;27.60;;;;;;;;;;5071314;28;20039;-73
2022/09/12 00:47:53;;;;;;;39.42;26.60;;;;;;;;;;5066729;28;20376;-76
2022/09/12 00:50:19;;;;;;;46.85;28.90;;;;;;;;;;5057301;28;20082;-75
2022/09/12 00:52:50;;;;;;;46.30;27.98;;;;;;;;;;5057040;28;20031;-75
2022/09/12 00:55:18;;;;;;;37.10;25.25;;;;;;;;;;5057217;28;20473;-75
2022/09/12 00:57:48;;;;;;;40.90;26.50;;;;;;;;;;5056873;28;20955;-75
2022/09/12 01:00:16;;;;;;;42.35;27.20;;;;;;;;;;5056998;28;20029;-75
2022/09/12 01:02:47;;;;;;;43.45;27.80;;;;;;;;;;5056712;28;20025;-76
2022/09/12 01:05:15;;;;;;;45.00;28.70;;;;;;;;;;5057011;28;20025;-75
2022/09/12 01:07:43;;;;;;;44.90;28.70;;;;;;;;;;5056390;28;20025;-75
2022/09/12 01:10:09;;;;;;;46.20;27.25;;;;;;;;;;5056881;28;20025;-74
2022/09/12 01:12:37;;;;;;;47.08;28.67;;;;;;;;;;5056804;28;20222;-74
2022/09/12 01:15:04;;;;;;;40.03;26.08;;;;;;;;;;5056532;28;20114;-75
2022/09/12 01:17:34;;;;;;;40.13;25.83;;;;;;;;;;5054887;28;20021;-75
2022/09/12 01:20:03;;;;;;;35.37;24.43;;;;;;;;;;5057212;28;20021;-75
2022/09/12 01:22:44;;;;;;;45.40;28.00;;;;;;;;;;5056864;28;20267;-75
2022/09/12 01:25:32;;;;;;;47.45;27.75;;;;;;;;;;5056986;28;20097;-75
2022/09/12 01:28:01;;;;;;;51.42;28.90;;;;;;;;;;5055966;28;20036;-76
2022/09/12 01:30:30;;;;;;;50.70;31.23;;;;;;;;;;5056531;28;20051;-76
2022/09/12 01:33:06;;;;;;;49.22;30.02;;;;;;;;;;5070426;28;20029;-74
2022/09/12 01:35:40;;;;;;;60.25;32.95;;;;;;;;;;5056829;28;20025;-75
2022/09/12 01:38:25;;;;;;;51.72;32.35;;;;;;;;;;5055810;28;20032;-76
2022/09/12 01:41:09;;;;;;;48.67;30.67;;;;;;;;;;5057346;28;20025;-75
2022/09/12 01:43:47;;;;;;;46.30;29.42;;;;;;;;;;5054813;28;20059;-76
2022/09/12 01:46:21;;;;;;;56.35;31.15;;;;;;;;;;5053278;28;20430;-75
2022/09/12 01:48:55;;;;;;;54.78;30.63;;;;;;;;;;5053016;28;20021;-76
2022/09/12 01:51:26;;;;;;;51.72;30.30;;;;;;;;;;5053491;28;20017;-76
2022/09/12 01:53:54;;;;;;;57.17;31.45;;;;;;;;;;5053368;28;20483;-75
2022/09/12 01:56:28;;;;;;;57.25;30.73;;;;;;;;;;5053109;28;20055;-73
2022/09/12 01:58:57;;;;;;;51.08;29.30;;;;;;;;;;5058911;28;20045;-76
2022/09/12 02:01:35;;;;;;;64.32;31.10;;;;;;;;;;5051828;28;20156;-73
2022/09/12 02:04:07;;;;;;;51.60;30.10;;;;;;;;;;5053102;28;20111;-75
2022/09/12 02:06:39;;;;;;;54.88;30.80;;;;;;;;;;5039701;28;20456;-75
2022/09/12 02:09:11;;;;;;;45.58;28.48;;;;;;;;;;5052211;28;20031;-75
2022/09/12 02:11:40;;;;;;;48.70;29.60;;;;;;;;;;5053036;28;20021;-75
2022/09/12 02:14:07;;;;;;;53.60;30.73;;;;;;;;;;5052646;28;20079;-74
2022/09/12 02:16:36;;;;;;;43.47;27.58;;;;;;;;;;5051609;28;20079;-74
2022/09/12 02:19:05;;;;;;;51.97;29.48;;;;;;;;;;5052220;28;20044;-74
2022/09/12 02:21:32;;;;;;;52.13;29.10;;;;;;;;;;5052703;28;20037;-74
2022/09/12 02:24:01;;;;;;;47.58;27.75;;;;;;;;;;5052692;28;20025;-74
2022/09/12 02:26:32;;;;;;;49.88;28.00;;;;;;;;;;5051027;28;20036;-74
2022/09/12 02:28:58;;;;;;;48.45;28.48;;;;;;;;;;5051913;28;20352;-73
2022/09/12 02:31:27;;;;;;;54.33;30.30;;;;;;;;;;5052187;28;20467;-74
2022/09/12 02:34:23;;;;;;;45.85;28.50;;;;;;;;;;5052650;28;20022;-72
2022/09/12 02:37:02;;;;;;;59.05;31.30;;;;;;;;;;5036633;28;20426;-72
2022/09/12 02:39:28;;;;;;;65.38;32.97;;;;;;;;;;5052416;28;20364;-74
2022/09/12 02:41:56;;;;;;;58.03;30.17;;;;;;;;;;5052662;28;20021;-74
2022/09/12 02:44:23;;;;;;;52.45;30.13;;;;;;;;;;5052009;28;20044;-74
2022/09/12 02:46:55;;;;;;;63.22;32.80;;;;;;;;;;5052139;28;20032;-74
2022/09/12 02:49:21;;;;;;;54.22;31.13;;;;;;;;;;5050233;28;20027;-74
2022/09/12 02:51:48;;;;;;;53.72;29.92;;;;;;;;;;5052269;28;20078;-75
2022/09/12 02:54:14;;;;;;;55.42;31.90;;;;;;;;;;5051857;28;20083;-74
2022/09/12 02:56:42;;;;;;;52.80;30.70;;;;;;;;;;5052365;28;20052;-74
2022/09/12 02:59:09;;;;;;;53.33;29.30;;;;;;;;;;5051100;28;20029;-74
2022/09/12 03:01:41;;;;;;;53.85;30.55;;;;;;;;;;5052060;28;20047;-75
2022/09/12 03:04:26;;;;;;;50.72;29.52;;;;;;;;;;5051796;28;20103;-75
2022/09/12 03:07:01;;;;;;;57.70;31.67;;;;;;;;;;5052151;28;20124;-74
2022/09/12 03:09:33;;;;;;;55.78;29.95;;;;;;;;;;5051212;28;20075;-75
2022/09/12 03:12:09;;;;;;;54.40;31.65;;;;;;;;;;5052466;28;20025;-75
2022/09/12 03:14:53;;;;;;;47.70;29.33;;;;;;;;;;5081016;22;20048;-72
2022/09/12 03:17:22;;;;;;;49.25;29.15;;;;;;;;;;5058220;28;20037;-72
2022/09/12 03:20:15;;;;;;;51.20;30.65;;;;;;;;;;5033582;28;20098;-72
2022/09/12 03:22:50;;;;;;;52.60;30.35;;;;;;;;;;5014279;28;20036;-73
2022/09/12 03:25:20;;;;;;;45.13;28.10;;;;;;;;;;5061286;28;20158;-72
2022/09/12 03:27:51;;;;;;;45.65;28.27;;;;;;;;;;5070419;28;20112;-72
2022/09/12 03:30:17;;;;;;;54.28;29.95;;;;;;;;;;5071202;28;20483;-73
2022/09/12 03:32:43;;;;;;;53.38;31.98;;;;;;;;;;5071094;28;20108;-72
2022/09/12 03:35:09;;;;;;;47.60;28.35;;;;;;;;;;5071328;28;20166;-72
2022/09/12 03:37:35;;;;;;;50.72;29.95;;;;;;;;;;5070364;28;20028;-73
2022/09/12 03:40:02;;;;;;;50.53;29.13;;;;;;;;;;5053339;28;20501;-73
2022/09/12 03:42:28;;;;;;;63.00;33.25;;;;;;;;;;5070901;28;20099;-73
2022/09/12 03:44:54;;;;;;;62.88;33.47;;;;;;;;;;5071461;28;20155;-73
2022/09/12 03:47:20;;;;;;;63.05;32.72;;;;;;;;;;5069872;28;20035;-72
2022/09/12 03:49:46;;;;;;;52.85;31.95;;;;;;;;;;5070987;28;20027;-73
2022/09/12 03:52:12;;;;;;;52.97;30.80;;;;;;;;;;5071139;28;20020;-72
2022/09/12 03:54:38;;;;;;;49.45;30.08;;;;;;;;;;5070684;28;20070;-72
2022/09/12 03:57:04;;;;;;;53.55;31.67;;;;;;;;;;5070330;28;20459;-71
2022/09/12 03:59:30;;;;;;;50.67;29.92;;;;;;;;;;5070509;28;20034;-72
2022/09/12 04:01:56;;;;;;;58.72;32.80;;;;;;;;;;5070643;28;20039;-73
2022/09/12 04:04:22;;;;;;;50.00;29.95;;;;;;;;;;5052343;28;20115;-73
2022/09/12 04:06:48;;;;;;;57.90;33.50;;;;;;;;;;5070116;28;20029;-72
2022/09/12 04:09:14;;;;;;;59.17;32.85;;;;;;;;;;5069898;28;20021;-73
2022/09/12 04:11:40;;;;;;;51.55;28.83;;;;;;;;;;5052789;28;20471;-73
2022/09/12 04:14:06;;;;;;;52.17;31.77;;;;;;;;;;5070403;28;20032;-73
2022/09/12 04:16:32;;;;;;;50.63;30.95;;;;;;;;;;5052515;28;20043;-72
2022/09/12 04:18:58;;;;;;;46.65;29.10;;;;;;;;;;5069829;28;20024;-73
2022/09/12 04:21:24;;;;;;;53.28;30.27;;;;;;;;;;5070373;28;20039;-72
2022/09/12 04:23:51;;;;;;;52.90;30.98;;;;;;;;;;5070535;28;20025;-73
2022/09/12 04:26:18;;;;;;;54.20;30.55;;;;;;;;;;5070193;28;20029;-72
2022/09/12 04:28:45;;;;;;;44.17;28.45;;;;;;;;;;5069684;28;20029;-72
2022/09/12 04:31:14;;;;;;;57.67;32.33;;;;;;;;;;5070102;28;20044;-73
2022/09/12 04:33:40;;;;;;;55.33;32.10;;;;;;;;;;5052654;28;20111;-73
2022/09/12 04:36:07;;;;;;;50.05;30.58;;;;;;;;;;5052061;28;20020;-73
2022/09/12 04:38:34;;;;;;;61.22;33.97;;;;;;;;;;5069619;28;20021;-73
2022/09/12 04:41:00;;;;;;;52.97;29.90;;;;;;;;;;5052127;28;20020;-74
2022/09/12 04:43:26;;;;;;;53.47;32.67;;;;;;;;;;5070206;28;20103;-73
2022/09/12 04:45:52;;;;;;;58.70;31.67;;;;;;;;;;5070274;28;20096;-72
2022/09/12 04:48:18;;;;;;;47.53;28.75;;;;;;;;;;5069184;28;20497;-73
2022/09/12 04:50:44;;;;;;;50.88;30.38;;;;;;;;;;5052301;28;20025;-73
2022/09/12 04:53:10;;;;;;;48.00;30.33;;;;;;;;;;5056727;28;20082;-73
2022/09/12 04:55:36;;;;;;;48.72;29.90;;;;;;;;;;5070020;28;20628;-73
2022/09/12 04:58:02;;;;;;;40.90;28.00;;;;;;;;;;5068793;28;20047;-73
2022/09/12 05:00:28;;;;;;;47.30;30.58;;;;;;;;;;5070038;28;20450;-73
2022/09/12 05:02:54;;;;;;;52.08;30.13;;;;;;;;;;5070174;28;20048;-73
2022/09/12 05:05:20;;;;;;;49.90;29.98;;;;;;;;;;5070110;28;20474;-74
2022/09/12 05:07:46;;;;;;;52.80;30.08;;;;;;;;;;5069472;28;20029;-73
2022/09/12 05:10:12;;;;;;;41.47;28.10;;;;;;;;;;5069849;28;20024;-73
2022/09/12 05:12:38;;;;;;;47.97;29.30;;;;;;;;;;5051632;28;20062;-73
2022/09/12 05:15:05;;;;;;;46.42;28.75;;;;;;;;;;5069703;28;20539;-73
2022/09/12 05:17:31;;;;;;;45.83;28.98;;;;;;;;;;5068580;28;20252;-73
2022/09/12 05:19:57;;;;;;;46.05;29.10;;;;;;;;;;5073760;28;20394;-74
2022/09/12 05:22:23;;;;;;;46.33;28.75;;;;;;;;;;5072815;28;20390;-73
2022/09/12 05:24:49;;;;;;;46.47;27.75;;;;;;;;;;5073520;28;20029;-73
2022/09/12 05:27:15;;;;;;;48.38;29.60;;;;;;;;;;5062653;28;20033;-73
2022/09/12 05:29:41;;;;;;;42.90;27.60;;;;;;;;;;5051016;28;20025;-73
2022/09/12 05:32:08;;;;;;;53.28;29.55;;;;;;;;;;5059596;28;20013;-72
2022/09/12 05:34:34;;;;;;;46.53;27.35;;;;;;;;;;5066715;28;20089;-73
2022/09/12 05:37:00;;;;;;;50.05;29.33;;;;;;;;;;5069223;28;20028;-72
2022/09/12 05:39:26;;;;;;;47.22;26.95;;;;;;;;;;5069338;28;20056;-73
2022/09/12 05:41:53;;;;;;;43.65;27.35;;;;;;;;;;5064773;28;20290;-73
2022/09/12 05:44:19;;;;;;;44.22;28.27;;;;;;;;;;5054891;28;20024;-73
2022/09/12 05:46:49;;;;;;;41.92;27.25;;;;;;;;;;5065082;28;20390;-73
2022/09/12 05:49:15;;;;;;;46.25;26.90;;;;;;;;;;5068124;28;20127;-72
2022/09/12 05:51:44;;;;;;;38.58;26.05;;;;;;;;;;5062076;28;20074;-75
2022/09/12 05:54:12;;;;;;;40.72;25.65;;;;;;;;;;5065424;28;20477;-72
2022/09/12 05:56:39;;;;;;;40.25;24.42;;;;;;;;;;5061864;28;20052;-72
2022/09/12 05:59:07;;;;;;;36.47;24.50;;;;;;;;;;5063236;28;20028;-72
2022/09/12 06:01:33;;;;;;;35.25;24.20;;;;;;;;;;5065295;28;20016;-73
2022/09/12 06:04:01;;;;;;;31.27;21.63;;;;;;;;;;5071499;28;20031;-72
2022/09/12 06:06:27;;;;;;;32.55;23.15;;;;;;;;;;5071854;28;20033;-72
2022/09/12 06:08:55;;;;;;;29.17;21.00;;;;;;;;;;5071799;28;20471;-72
2022/09/12 06:11:23;;;;;;;29.73;22.65;;;;;;;;;;5072047;28;20027;-72
2022/09/12 06:13:49;;;;;;;24.10;18.88;;;;;;;;;;5057565;28;20024;-73
2022/09/12 06:16:17;;;;;;;27.08;18.75;;;;;;;;;;5072041;28;20021;-72
2022/09/12 06:18:53;;;;;;;26.25;19.95;;;;;;;;;;5054099;28;20055;-74
2022/09/12 06:21:20;;;;;;;23.02;18.25;;;;;;;;;;5071718;28;20024;-71
2022/09/12 06:23:47;;;;;;;24.55;18.40;;;;;;;;;;5071735;28;20035;-70
2022/09/12 06:26:14;;;;;;;24.73;19.20;;;;;;;;;;5070202;28;20012;-70
2022/09/12 06:28:41;;;;;;;25.88;19.60;;;;;;;;;;5069546;28;20480;-71
2022/09/12 06:31:07;;;;;;;25.40;18.80;;;;;;;;;;5070971;28;20085;-71
2022/09/12 06:33:34;;;;;;;24.92;17.42;;;;;;;;;;5069860;28;20115;-71
2022/09/12 06:36:20;;;;;;;24.83;17.42;;;;;;;;;;5071882;28;20021;-71
2022/09/12 06:38:47;;;;;;;21.27;15.93;;;;;;;;;;5070851;28;20024;-71
2022/09/12 06:41:14;;;;;;;22.25;15.43;;;;;;;;;;5072191;28;20375;-71
2022/09/12 06:43:40;;;;;;;22.30;16.27;;;;;;;;;;5072544;28;20020;-72
2022/09/12 06:46:07;;;;;;;24.58;16.20;;;;;;;;;;5071750;28;20398;-71
2022/09/12 06:48:33;;;;;;;20.95;16.85;;;;;;;;;;5053557;28;20016;-72
2022/09/12 06:51:18;;;;;;;21.10;16.42;;;;;;;;;;5072146;28;20029;-71
2022/09/12 06:53:45;;;;;;;19.35;14.35;;;;;;;;;;5072172;28;20025;-71
2022/09/12 06:56:12;;;;;;;23.50;16.30;;;;;;;;;;5072067;28;20496;-71
2022/09/12 06:58:38;;;;;;;20.92;16.30;;;;;;;;;;5071900;28;20385;-71
2022/09/12 07:01:09;;;;;;;24.15;16.80;;;;;;;;;;5054102;28;20032;-71
2022/09/12 07:03:35;;;;;;;24.20;17.38;;;;;;;;;;5071932;28;20035;-71
2022/09/12 07:06:02;;;;;;;20.77;16.15;;;;;;;;;;5071669;28;20367;-70
2022/09/12 07:08:30;;;;;;;21.85;16.85;;;;;;;;;;5070972;28;20032;-71
2022/09/12 07:10:57;;;;;;;22.10;16.38;;;;;;;;;;5071495;28;20462;-72
2022/09/12 07:13:24;;;;;;;19.23;15.77;;;;;;;;;;5071690;28;20137;-71
2022/09/12 07:15:50;;;;;;;23.40;16.45;;;;;;;;;;5071230;28;20504;-71
2022/09/12 07:18:16;;;;;;;25.90;16.50;;;;;;;;;;5071273;28;20035;-71
2022/09/12 07:20:43;;;;;;;19.52;16.20;;;;;;;;;;5071881;28;20524;-72
2022/09/12 07:23:09;;;;;;;22.70;16.42;;;;;;;;;;5071772;28;20363;-71
2022/09/12 07:25:35;;;;;;;20.98;15.52;;;;;;;;;;5071943;28;20108;-71
2022/09/12 07:28:01;;;;;;;23.52;16.45;;;;;;;;;;5070536;28;20032;-71
2022/09/12 07:30:27;;;;;;;19.30;15.20;;;;;;;;;;5064863;28;20059;-71
2022/09/12 07:32:53;;;;;;;21.02;15.50;;;;;;;;;;5071659;28;20021;-71
2022/09/12 07:35:20;;;;;;;21.60;15.18;;;;;;;;;;5071634;28;20016;-71
2022/09/12 07:37:46;;;;;;;19.08;14.07;;;;;;;;;;5070668;28;20033;-72
2022/09/12 07:40:12;;;;;;;17.63;13.25;;;;;;;;;;5071822;28;20028;-71
2022/09/12 07:42:38;;;;;;;18.05;13.38;;;;;;;;;;5070497;28;20058;-72
2022/09/12 07:45:04;;;;;;;17.50;13.05;;;;;;;;;;5071759;28;20121;-71
2022/09/12 07:47:30;;;;;;;16.65;12.55;;;;;;;;;;5052284;28;20371;-71
2022/09/12 07:49:56;;;;;;;15.18;12.73;;;;;;;;;;5071206;28;20142;-71
2022/09/12 07:52:22;;;;;;;15.35;12.18;;;;;;;;;;5071064;28;20109;-71
2022/09/12 07:54:48;;;;;;;15.00;10.00;;;;;;;;;;5070694;28;20126;-71
2022/09/12 07:57:14;;;;;;;12.10;10.63;;;;;;;;;;5063439;28;20029;-71
2022/09/12 07:59:41;;;;;;;13.50;9.32;;;;;;;;;;5070898;28;20027;-72
2022/09/12 08:02:12;;;;;;;12.80;9.65;;;;;;;;;;5071157;28;20020;-71
2022/09/12 08:04:38;;;;;;;10.30;8.13;;;;;;;;;;5070645;28;20021;-71
2022/09/12 08:07:05;;;;;;;13.75;8.98;;;;;;;;;;5070250;28;20062;-71
2022/09/12 08:09:31;;;;;;;11.45;9.52;;;;;;;;;;5070415;28;20389;-71
2022/09/12 08:11:57;;;;;;;12.88;10.30;;;;;;;;;;5070633;28;20519;-70
2022/09/12 08:14:23;;;;;;;10.38;9.20;;;;;;;;;;5070224;28;20024;-71
2022/09/12 08:16:49;;;;;;;11.63;8.68;;;;;;;;;;5052409;28;20149;-72
2022/09/12 08:19:15;;;;;;;9.27;7.65;;;;;;;;;;5051805;28;20032;-71
2022/09/12 08:21:41;;;;;;;9.52;7.88;;;;;;;;;;5070788;28;20021;-71
2022/09/12 08:24:07;;;;;;;11.98;8.25;;;;;;;;;;5070749;28;20429;-71
2022/09/12 08:26:34;;;;;;;11.80;8.13;;;;;;;;;;5070495;28;20397;-71
2022/09/12 08:29:01;;;;;;;12.65;8.80;;;;;;;;;;5051904;28;20021;-71
2022/09/12 08:31:27;;;;;;;11.23;9.60;;;;;;;;;;5070537;28;20040;-71
2022/09/12 08:33:56;;;;;;;13.25;9.20;;;;;;;;;;5052662;28;20077;-70
2022/09/12 08:36:24;;;;;;;11.25;8.32;;;;;;;;;;5071624;28;20024;-71
2022/09/12 08:38:56;;;;;;;10.00;8.13;;;;;;;;;;5069611;28;20024;-71
2022/09/12 08:41:23;;;;;;;8.55;7.65;;;;;;;;;;5070379;28;20021;-71
2022/09/12 08:44:01;;;;;;;13.82;9.32;;;;;;;;;;5070506;28;20029;-71
2022/09/12 08:46:39;;;;;;;10.25;8.77;;;;;;;;;;5069989;28;20036;-71
2022/09/12 08:49:08;;;;;;;9.15;7.97;;;;;;;;;;5069596;28;20029;-70
2022/09/12 08:51:35;;;;;;;10.55;8.60;;;;;;;;;;5070324;28;20128;-71
2022/09/12 08:54:02;;;;;;;9.30;7.47;;;;;;;;;;5054797;28;20020;-70
2022/09/12 08:56:31;;;;;;;9.27;8.27;;;;;;;;;;5074206;28;20020;-70
2022/09/12 08:58:58;;;;;;;8.18;7.00;;;;;;;;;;5073428;28;20024;-71
2022/09/12 09:01:30;;;;;;;11.65;6.65;;;;;;;;;;5074233;28;20017;-71
2022/09/12 09:04:14;;;;;;;8.20;6.15;;;;;;;;;;5074157;28;20027;-71
2022/09/12 09:06:44;;;;;;;8.27;7.43;;;;;;;;;;5062040;28;20028;-71
2022/09/12 09:09:16;;;;;;;8.07;6.43;;;;;;;;;;5055433;28;20074;-71
2022/09/12 09:11:42;;;;;;;9.05;7.30;;;;;;;;;;5074235;28;20020;-71
2022/09/12 09:16:37;;;;;;;8.15;6.28;;;;;;;;;;5089467;22;20084;-74
2022/09/12 09:19:24;;;;;;;11.13;6.30;;;;;;;;;;5059825;28;20434;-74
2022/09/12 09:21:52;;;;;;;10.13;5.43;;;;;;;;;;5045136;28;20516;-76
2022/09/12 09:24:21;;;;;;;6.00;5.40;;;;;;;;;;5040300;28;20028;-75
2022/09/12 09:27:04;;;;;;;6.60;5.28;;;;;;;;;;5062476;28;20123;-75
2022/09/12 09:29:36;;;;;;;8.38;5.95;;;;;;;;;;5055555;28;20074;-75
2022/09/12 09:32:04;;;;;;;7.90;5.70;;;;;;;;;;5074492;28;20031;-74
2022/09/12 09:34:30;;;;;;;6.38;5.47;;;;;;;;;;5073671;28;20432;-74
2022/09/12 09:37:15;;;;;;;6.82;5.82;;;;;;;;;;5056015;28;20029;-73
2022/09/12 09:39:56;;;;;;;9.05;6.28;;;;;;;;;;5073650;28;20027;-73
2022/09/12 09:42:25;;;;;;;5.75;5.15;;;;;;;;;;5073894;28;20503;-76
2022/09/12 09:44:53;;;;;;;6.22;4.95;;;;;;;;;;5059958;28;20016;-75
2022/09/12 09:47:19;;;;;;;6.10;3.92;;;;;;;;;;5072538;28;20024;-73
2022/09/12 09:49:46;;;;;;;5.18;4.00;;;;;;;;;;5072338;28;20021;-73
2022/09/12 09:52:14;;;;;;;4.97;4.00;;;;;;;;;;5073637;28;20021;-74
2022/09/12 09:54:42;;;;;;;5.38;4.50;;;;;;;;;;5073684;28;20510;-73
2022/09/12 09:57:41;;;;;;;7.65;4.55;;;;;;;;;;5072911;28;20036;-74
2022/09/12 10:00:27;;;;;;;7.05;4.20;;;;;;;;;;5029361;28;20037;-74
2022/09/12 10:02:58;;;;;;;4.28;3.72;;;;;;;;;;5073773;28;20181;-75
2022/09/12 10:05:24;;;;;;;3.92;3.42;;;;;;;;;;5072533;28;20498;-74
2022/09/12 10:07:51;;;;;;;5.10;3.85;;;;;;;;;;5072353;28;20024;-73
2022/09/12 10:10:18;;;;;;;5.03;3.85;;;;;;;;;;5073470;28;20017;-74
2022/09/12 10:12:44;;;;;;;5.45;4.07;;;;;;;;;;5073067;28;20024;-75
2022/09/12 10:15:17;;;;;;;6.70;4.20;;;;;;;;;;5073086;28;20033;-75
2022/09/12 10:17:44;;;;;;;4.32;3.42;;;;;;;;;;5072445;28;20025;-73
2022/09/12 10:20:31;;;;;;;5.10;3.30;;;;;;;;;;5073232;28;20173;-75
2022/09/12 10:23:01;;;;;;;4.07;3.10;;;;;;;;;;5072972;28;20413;-74
2022/09/12 10:25:27;;;;;;;3.33;3.00;;;;;;;;;;5073313;28;20020;-74
2022/09/12 10:27:55;;;;;;;4.32;2.92;;;;;;;;;;5072005;28;20436;-75
2022/09/12 10:30:26;;;;;;;3.17;2.67;;;;;;;;;;5072890;28;20028;-74
2022/09/12 10:32:53;;;;;;;7.10;3.28;;;;;;;;;;5073072;28;20100;-72
2022/09/12 10:35:29;;;;;;;5.25;3.97;;;;;;;;;;5072781;28;20067;-72
2022/09/12 10:38:03;;;;;;;4.93;3.42;;;;;;;;;;5072047;28;20048;-75
2022/09/12 10:40:38;;;;;;;5.28;3.05;;;;;;;;;;5073029;28;20264;-74
2022/09/12 10:43:37;;;;;;;4.03;2.80;;;;;;;;;;5072985;28;20410;-74
2022/09/12 10:46:18;;;;;;;3.20;2.40;;;;;;;;;;5027731;28;20040;-74
2022/09/12 10:48:44;;;;;;;5.65;2.15;;;;;;;;;;5071926;28;20031;-74
2022/09/12 10:51:26;;;;;;;4.20;2.55;;;;;;;;;;5072464;28;20071;-72
2022/09/12 10:53:55;;;;;;;2.38;2.15;;;;;;;;;;5054703;28;20102;-72
2022/09/12 10:56:22;;;;;;;2.95;2.40;;;;;;;;;;5072120;28;20027;-73
2022/09/12 10:59:06;;;;;;;4.70;2.33;;;;;;;;;;5071746;28;20023;-73
2022/09/12 11:01:32;;;;;;;5.28;2.83;;;;;;;;;;5041016;28;20069;-75
2022/09/12 11:04:11;;;;;;;3.53;2.10;;;;;;;;;;5072560;28;20029;-73
2022/09/12 11:06:47;;;;;;;2.45;2.08;;;;;;;;;;5068639;28;20504;-75
2022/09/12 11:09:21;;;;;;;2.75;1.45;;;;;;;;;;5071367;28;20347;-75
2022/09/12 11:11:47;;;;;;;1.80;1.70;;;;;;;;;;5071997;28;20382;-72
2022/09/12 11:14:22;;;;;;;3.20;1.85;;;;;;;;;;5071774;28;20020;-76
2022/09/12 11:17:08;;;;;;;1.75;1.50;;;;;;;;;;5072058;28;20022;-74
2022/09/12 11:19:40;;;;;;;2.97;2.05;;;;;;;;;;5072430;28;20024;-75
2022/09/12 11:22:17;;;;;;;1.95;1.60;;;;;;;;;;5076668;28;20482;-72
2022/09/12 11:24:56;;;;;;;1.92;1.60;;;;;;;;;;5088323;28;20039;-74
2022/09/12 11:27:25;;;;;;;2.13;1.92;;;;;;;;;;5094286;28;20040;-73
2022/09/12 11:29:51;;;;;;;2.47;1.65;;;;;;;;;;5095138;28;20009;-73
2022/09/12 11:32:35;;;;;;;1.30;1.20;;;;;;;;;;5088249;28;20028;-74
2022/09/12 11:35:01;;;;;;;1.73;1.40;;;;;;;;;;5061640;28;20032;-73
2022/09/12 11:37:27;;;;;;;4.70;1.83;;;;;;;;;;5071474;28;20016;-73
2022/09/12 11:39:54;;;;;;;4.05;1.80;;;;;;;;;;5057585;28;20498;-75
2022/09/12 11:42:23;;;;;;;1.40;1.30;;;;;;;;;;5071636;28;20421;-74
2022/09/12 11:44:53;;;;;;;3.17;1.10;;;;;;;;;;5071419;28;20012;-74
2022/09/12 11:47:19;;;;;;;4.13;1.52;;;;;;;;;;5071162;28;20067;-72
2022/09/12 11:49:50;;;;;;;3.13;1.48;;;;;;;;;;5071752;28;20021;-75
2022/09/12 11:52:16;;;;;;;3.47;1.30;;;;;;;;;;5071906;28;20032;-72
2022/09/12 11:54:51;;;;;;;1.60;1.33;;;;;;;;;;5071663;28;20025;-75
2022/09/12 11:57:36;;;;;;;1.70;1.35;;;;;;;;;;5073951;28;20326;-74
2022/09/12 12:00:07;;;;;;;3.42;1.38;;;;;;;;;;5069541;28;20020;-73
2022/09/12 12:02:33;;;;;;;;;;;;;;;;;;5074594;28;20040;-75
2022/09/12 12:05:05;;;;;;;2.55;1.45;;;;;;;;;;5073995;28;20370;-75
2022/09/12 12:07:38;;;;;;;2.03;1.05;;;;;;;;;;5071672;28;20585;-72
2022/09/12 12:10:04;;;;;;;1.73;1.40;;;;;;;;;;5071519;28;20024;-75
2022/09/12 12:12:30;;;;;;;3.72;1.70;;;;;;;;;;5071445;28;20021;-76
2022/09/12 12:14:57;;;;;;;1.90;1.27;;;;;;;;;;5071375;28;20126;-74
2022/09/12 12:17:28;;;;;;;1.98;1.17;;;;;;;;;;5070621;28;20111;-75
2022/09/12 12:19:59;;;;;;;2.78;1.23;;;;;;;;;;5057735;28;20028;-74
2022/09/12 12:22:25;;;;;;;2.80;1.33;;;;;;;;;;5052611;28;20044;-74
2022/09/12 12:24:57;;;;;;;2.45;1.45;;;;;;;;;;5057361;28;20525;-75
2022/09/12 12:27:46;;;;;;;1.70;1.55;;;;;;;;;;5069806;28;20064;-75
2022/09/12 12:30:30;;;;;;;1.70;1.20;;;;;;;;;;5070792;28;20034;-74
2022/09/12 12:33:00;;;;;;;3.38;1.30;;;;;;;;;;5070961;28;20027;-75
2022/09/12 12:35:36;;;;;;;2.38;1.45;;;;;;;;;;5070704;28;20024;-73
2022/09/12 12:38:02;;;;;;;1.95;1.13;;;;;;;;;;5069698;28;20017;-73
2022/09/12 12:40:29;;;;;;;1.40;1.20;;;;;;;;;;5070856;28;20029;-75
2022/09/12 12:42:55;;;;;;;2.72;1.60;;;;;;;;;;5070553;28;20032;-74
2022/09/12 12:45:27;;;;;;;2.50;1.30;;;;;;;;;;5070932;28;20441;-74
2022/09/12 12:48:01;;;;;;;1.88;1.30;;;;;;;;;;5069453;28;20470;-73
2022/09/12 12:50:29;;;;;;;1.83;0.98;;;;;;;;;;5070752;28;20033;-74
2022/09/12 12:52:58;;;;;;;3.30;1.35;;;;;;;;;;5070558;28;20028;-75
2022/09/12 12:55:42;;;;;;;3.20;1.23;;;;;;;;;;5070589;28;20037;-74
2022/09/12 12:58:27;;;;;;;2.13;1.15;;;;;;;;;;5069245;28;20127;-72
2022/09/12 13:01:09;;;;;;;2.10;1.20;;;;;;;;;;5065150;28;20028;-72
2022/09/12 13:03:35;;;;;;;1.30;1.20;;;;;;;;;;5070757;28;20099;-75
2022/09/12 13:06:02;;;;;;;2.13;1.15;;;;;;;;;;5070026;28;20137;-74
2022/09/12 13:08:33;;;;;;;3.38;1.30;;;;;;;;;;5069873;28;20056;-74
2022/09/12 13:11:01;;;;;;;2.72;1.15;;;;;;;;;;5070409;28;20029;-75
2022/09/12 13:13:31;;;;;;;1.35;1.00;;;;;;;;;;5052436;28;20078;-74
2022/09/12 13:15:57;;;;;;;2.50;0.90;;;;;;;;;;5069803;28;20028;-72
2022/09/12 13:18:24;;;;;;;2.97;1.02;;;;;;;;;;5070245;28;20110;-75
2022/09/12 13:21:00;;;;;;;1.50;1.40;;;;;;;;;;5070322;28;20083;-74
2022/09/12 13:23:30;;;;;;;1.98;1.27;;;;;;;;;;5064877;28;20029;-74
2022/09/12 13:25:57;;;;;;;3.30;1.88;;;;;;;;;;5065532;28;20031;-72
2022/09/12 13:28:25;;;;;;;2.65;0.90;;;;;;;;;;5069514;28;20033;-73
2022/09/12 13:30:54;;;;;;;1.60;1.10;;;;;;;;;;5063037;28;20479;-73
2022/09/12 13:33:24;;;;;;;1.10;1.00;;;;;;;;;;5070406;28;20020;-73
2022/09/12 13:35:55;;;;;;;3.65;1.17;;;;;;;;;;5070072;28;20045;-73
2022/09/12 13:38:40;;;;;;;3.35;1.60;;;;;;;;;;5069402;28;20021;-75
2022/09/12 13:41:25;;;;;;;1.20;1.00;;;;;;;;;;5063377;28;20150;-76
2022/09/12 13:43:51;;;;;;;1.95;1.35;;;;;;;;;;5072102;28;20547;-74
2022/09/12 13:46:22;;;;;;;4.57;1.50;;;;;;;;;;5073191;28;20478;-74
2022/09/12 13:48:48;;;;;;;1.45;1.20;;;;;;;;;;5072746;28;20024;-72
2022/09/12 13:51:21;;;;;;;4.25;1.50;;;;;;;;;;5073083;28;20478;-73
2022/09/12 13:53:47;;;;;;;2.78;1.23;;;;;;;;;;5054741;28;20028;-72
2022/09/12 13:56:17;;;;;;;2.35;1.35;;;;;;;;;;5053365;28;20021;-74
2022/09/12 13:58:57;;;;;;;2.05;1.05;;;;;;;;;;5072348;28;20028;-73
2022/09/12 14:01:24;;;;;;;2.55;1.35;;;;;;;;;;5053830;28;20052;-73
2022/09/12 14:06:55;;;;;;;1.30;1.20;;;;;;;;;;5072593;28;20031;-72
2022/09/12 14:09:37;;;;;;;1.75;1.15;;;;;;;;;;5072567;28;20021;-71
2022/09/12 14:12:04;;;;;;;2.35;1.52;;;;;;;;;;5073096;28;20071;-72
2022/09/12 14:14:35;;;;;;;2.65;1.63;;;;;;;;;;5072641;28;20021;-72
2022/09/12 14:17:02;;;;;;;1.08;1.05;;;;;;;;;;5072652;28;20493;-73
2022/09/12 14:19:28;;;;;;;1.38;1.15;;;;;;;;;;5072682;28;20032;-72
2022/09/12 14:21:54;;;;;;;1.33;1.05;;;;;;;;;;5073005;28;20021;-74
2022/09/12 14:24:24;;;;;;;2.03;1.25;;;;;;;;;;5072911;28;20522;-72
2022/09/12 14:26:55;;;;;;;2.15;1.00;;;;;;;;;;5073070;28;20052;-74
2022/09/12 14:29:23;;;;;;;1.80;1.40;;;;;;;;;;5072097;28;20025;-73
2022/09/12 14:32:00;;;;;;;2.58;1.23;;;;;;;;;;5072824;28;20017;-72
2022/09/12 14:34:26;;;;;;;1.70;1.08;;;;;;;;;;5072465;28;20455;-74
2022/09/12 14:36:54;;;;;;;3.13;1.30;;;;;;;;;;5054271;28;20070;-72
2022/09/12 14:39:21;;;;;;;2.88;1.40;;;;;;;;;;5071832;28;20078;-72
2022/09/12 14:41:48;;;;;;;1.35;1.17;;;;;;;;;;5072758;28;20101;-73
2022/09/12 14:44:23;;;;;;;3.25;1.55;;;;;;;;;;5072104;28;20074;-74
2022/09/12 14:46:49;;;;;;;3.20;1.33;;;;;;;;;;5072445;28;20020;-73
2022/09/12 14:49:32;;;;;;;3.05;1.45;;;;;;;;;;5053657;28;20081;-73